Time;durP1;ratioP1;P1;durP2;ratioP2;P2;SDS_P1;SDS_P2;PMS_P1;PMS_P2;Temp;Humidity;BMP_temperature;BMP_pressure;BME280_temperature;BME280_humidity;BME280_pressure;Samples;Min_cycle;Max_cycle;Signal;HPM_P1;HPM_P2
2021/08/07 00:06:16;;;;;;;11.68;6.85;;;13.90;99.90;;;;;;20737831;28;20112;-50
2021/08/07 00:16:17;;;;;;;14.43;8.52;;;13.40;99.90;;;;;;20738627;28;20030;-51
2021/08/07 00:26:19;;;;;;;11.32;7.82;;;13.20;99.90;;;;;;20737361;28;20084;-49
2021/08/07 00:36:21;;;;;;;10.95;7.07;;;13.50;99.90;;;;;;20751033;28;20452;-50
2021/08/07 00:46:38;;;;;;;10.88;6.97;;;13.80;99.90;;;;;;20732454;28;20412;-51
2021/08/07 00:56:41;;;;;;;11.13;7.22;;;13.80;99.90;;;;;;20732506;28;20053;-49
2021/08/07 01:07:30;;;;;;;13.57;8.30;;;13.80;99.90;;;;;;20730829;28;20496;-54
2021/08/07 01:17:34;;;;;;;14.05;7.38;;;13.70;99.90;;;;;;20729610;28;20124;-50
2021/08/07 01:27:41;;;;;;;11.63;7.90;;;13.80;99.90;;;;;;20729663;28;20034;-50
2021/08/07 01:37:52;;;;;;;13.32;9.27;;;13.80;99.90;;;;;;20729064;28;20034;-51
2021/08/07 01:48:21;;;;;;;16.38;10.13;;;13.70;99.90;;;;;;20728575;28;20033;-51
2021/08/07 01:58:38;;;;;;;17.38;10.27;;;13.50;99.90;;;;;;20734860;28;20054;-51
2021/08/07 02:08:41;;;;;;;19.23;12.30;;;13.20;99.90;;;;;;20727173;28;20058;-50
2021/08/07 02:18:48;;;;;;;16.48;11.05;;;13.00;99.90;;;;;;20742632;28;20088;-53
2021/08/07 02:28:52;;;;;;;19.40;10.65;;;13.00;99.90;;;;;;20717676;28;20033;-50
2021/08/07 02:38:55;;;;;;;11.52;8.75;;;13.20;99.90;;;;;;20742126;28;20344;-54
2021/08/07 02:48:58;;;;;;;12.80;8.13;;;13.50;99.90;;;;;;20742015;28;20468;-54
2021/08/07 02:59:00;;;;;;;13.10;7.20;;;13.90;99.90;;;;;;20722900;28;20046;-51
2021/08/07 03:09:04;;;;;;;11.50;6.70;;;14.20;99.90;;;;;;20722310;28;20050;-55
2021/08/07 03:19:09;;;;;;;7.97;5.55;;;14.40;99.90;;;;;;20722864;28;20479;-51
2021/08/07 03:29:11;;;;;;;6.45;4.88;;;14.70;99.90;;;;;;20739715;28;20088;-53
2021/08/07 03:39:13;;;;;;;9.30;5.20;;;14.90;99.90;;;;;;20718778;28;20042;-51
2021/08/07 03:49:18;;;;;;;9.13;4.75;;;14.90;99.90;;;;;;20721287;28;20369;-57
2021/08/07 03:59:22;;;;;;;8.63;4.95;;;15.10;99.90;;;;;;20712810;28;20049;-52
2021/08/07 04:09:24;;;;;;;6.60;4.32;;;15.20;99.90;;;;;;20697109;28;20026;-54
2021/08/07 04:19:28;;;;;;;7.22;4.80;;;15.30;99.90;;;;;;20687207;28;20038;-50
2021/08/07 04:29:37;;;;;;;7.87;4.63;;;15.20;99.90;;;;;;20703509;28;20608;-56
2021/08/07 04:39:39;;;;;;;8.35;4.70;;;15.30;99.90;;;;;;20695347;28;20404;-51
2021/08/07 04:49:44;;;;;;;5.78;3.67;;;15.40;99.90;;;;;;20691898;28;20034;-55
2021/08/07 04:59:46;;;;;;;6.07;3.75;;;15.40;99.90;;;;;;20691898;28;20484;-56
2021/08/07 05:09:48;;;;;;;9.15;4.25;;;15.50;99.90;;;;;;20714413;28;20092;-53
2021/08/07 05:19:56;;;;;;;5.05;3.53;;;15.50;99.90;;;;;;20689826;28;20485;-54
2021/08/07 05:29:58;;;;;;;9.10;4.07;;;15.50;99.90;;;;;;20702316;28;20061;-53
2021/08/07 05:39:59;;;;;;;4.72;3.30;;;15.60;99.90;;;;;;20687445;28;20097;-52
2021/08/07 05:50:03;;;;;;;6.43;3.70;;;15.70;99.90;;;;;;20681501;28;20473;-51
2021/08/07 06:00:06;;;;;;;6.45;3.55;;;15.90;99.90;;;;;;20677082;28;20058;-53
2021/08/07 06:10:19;;;;;;;5.28;3.10;;;16.20;99.90;;;;;;20663729;28;20046;-57
2021/08/07 06:20:23;;;;;;;5.90;3.17;;;16.40;99.90;;;;;;20645119;28;20038;-50
2021/08/07 06:30:27;;;;;;;4.82;3.08;;;16.50;99.90;;;;;;20643493;28;20081;-53
2021/08/07 06:40:31;;;;;;;7.22;3.42;;;16.50;99.90;;;;;;20643616;28;20091;-51
2021/08/07 06:50:34;;;;;;;5.85;3.42;;;16.80;99.90;;;;;;20643769;28;20405;-50
2021/08/07 07:00:37;;;;;;;8.30;2.90;;;17.50;99.90;;;;;;20683754;28;20096;-56
2021/08/07 07:10:40;;;;;;;8.13;3.25;;;17.80;99.90;;;;;;20722511;28;20046;-51
2021/08/07 07:20:43;;;;;;;6.13;2.80;;;18.00;99.90;;;;;;20723348;28;20037;-55
2021/08/07 07:30:45;;;;;;;3.45;2.33;;;17.90;99.90;;;;;;20739842;28;20036;-57
2021/08/07 07:40:47;;;;;;;4.68;2.55;;;18.00;99.90;;;;;;20729075;28;20025;-56
2021/08/07 07:50:50;;;;;;;3.80;2.58;;;18.30;99.90;;;;;;20755947;28;20105;-50
2021/08/07 08:00:53;;;;;;;3.80;2.00;;;18.80;99.90;;;;;;20729079;28;20041;-53
2021/08/07 08:10:59;;;;;;;4.70;2.10;;;18.90;99.90;;;;;;20753704;28;20046;-56
2021/08/07 08:21:02;;;;;;;7.30;2.40;;;18.70;99.90;;;;;;20719741;28;20038;-51
2021/08/07 08:31:07;;;;;;;8.68;2.30;;;18.30;99.90;;;;;;20734752;28;20038;-58
2021/08/07 08:41:09;;;;;;;4.03;2.30;;;18.40;99.90;;;;;;20733815;28;20038;-54
2021/08/07 08:51:18;;;;;;;5.07;2.30;;;19.30;99.90;;;;;;20732059;28;20096;-56
2021/08/07 09:01:20;;;;;;;4.43;1.90;;;20.80;99.90;;;;;;20702479;28;20447;-57
2021/08/07 09:11:22;;;;;;;3.53;1.50;;;22.50;99.90;;;;;;20673732;28;20066;-55
2021/08/07 09:21:32;;;;;;;10.50;2.47;;;23.10;99.90;;;;;;20649842;28;20034;-57
2021/08/07 09:31:34;;;;;;;5.07;1.73;;;23.10;99.90;;;;;;20647334;28;20558;-58
2021/08/07 09:41:57;;;;;;;2.45;1.30;;;22.70;99.90;;;;;;20648062;28;20030;-51
2021/08/07 09:52:09;;;;;;;4.82;1.52;;;22.60;99.90;;;;;;20632370;28;20039;-51
2021/08/07 10:02:23;;;;;;;4.07;1.70;;;24.10;99.90;;;;;;20653716;28;20405;-52
2021/08/07 10:12:29;;;;;;;;;;;25.20;99.90;;;;;;20663075;28;20091;-53
2021/08/07 10:22:45;;;;;;;5.38;1.52;;;25.20;99.90;;;;;;20644955;28;19926;-56
2021/08/07 10:32:47;;;;;;;5.93;1.27;;;25.90;99.90;;;;;;20661260;28;20374;-59
2021/08/07 10:42:52;;;;;;;3.40;1.77;;;26.80;98.10;;;;;;20661225;28;20391;-59
2021/08/07 10:53:00;;;;;;;2.25;1.42;;;27.20;97.30;;;;;;20642610;28;20539;-58
2021/08/07 11:03:13;;;;;;;3.58;1.80;;;26.80;97.50;;;;;;20659559;28;20092;-53
2021/08/07 11:13:24;;;;;;;2.75;1.75;;;26.70;96.20;;;;;;20659415;28;20497;-55
2021/08/07 11:23:36;;;;;;;2.92;1.63;;;26.80;96.80;;;;;;20659113;28;20082;-52
2021/08/07 11:33:38;;;;;;;2.78;1.30;;;26.90;96.90;;;;;;20659150;28;20026;-51
2021/08/07 11:43:50;;;;;;;3.20;1.58;;;26.90;93.90;;;;;;20658447;28;20038;-54
2021/08/07 11:53:53;;;;;;;3.10;1.92;;;25.10;96.50;;;;;;20657388;28;20138;-57
2021/08/07 12:03:56;;;;;;;3.65;1.50;;;25.30;96.30;;;;;;20691981;28;20054;-56
2021/08/07 12:14:01;;;;;;;4.38;2.28;;;24.80;96.70;;;;;;20720606;28;20038;-54
2021/08/07 12:24:02;;;;;;;2.53;1.83;;;24.10;96.50;;;;;;20740286;28;20042;-56
2021/08/07 12:34:27;;;;;;;3.95;1.67;;;23.50;99.50;;;;;;20751884;28;20042;-58
2021/08/07 12:44:31;;;;;;;3.58;2.35;;;23.60;99.90;;;;;;20751056;28;20037;-54
2021/08/07 12:54:33;;;;;;;5.88;2.70;;;24.40;98.80;;;;;;20750975;28;20041;-52
2021/08/07 13:04:43;;;;;;;3.40;2.78;;;24.80;98.90;;;;;;20755098;28;20096;-57
2021/08/07 13:14:54;;;;;;;3.83;2.88;;;24.50;98.80;;;;;;20740050;28;20041;-56
2021/08/07 13:24:58;;;;;;;3.70;2.90;;;23.60;99.90;;;;;;20727940;28;20041;-50
2021/08/07 13:35:09;;;;;;;5.03;2.80;;;23.50;99.90;;;;;;20749619;28;20084;-59
2021/08/07 13:45:11;;;;;;;5.00;3.20;;;23.40;99.90;;;;;;20745050;28;20050;-50
2021/08/07 13:55:14;;;;;;;8.32;3.75;;;22.80;99.90;;;;;;20745604;28;20603;-59
2021/08/07 14:05:15;;;;;;;9.15;3.15;;;22.50;99.90;;;;;;20751627;28;20447;-52
2021/08/07 14:15:17;;;;;;;4.68;3.45;;;22.60;99.90;;;;;;20744365;28;20420;-55
2021/08/07 14:25:19;;;;;;;4.00;3.00;;;22.40;99.90;;;;;;20743659;28;20026;-50
2021/08/07 14:35:22;;;;;;;6.93;3.30;;;21.80;99.90;;;;;;20742343;28;20025;-56
2021/08/07 14:45:24;;;;;;;5.50;3.47;;;21.80;99.90;;;;;;20741528;28;20479;-59
2021/08/07 14:55:26;;;;;;;5.57;3.50;;;21.40;99.90;;;;;;20739909;28;20030;-57
2021/08/07 15:05:30;;;;;;;8.80;3.53;;;21.00;99.90;;;;;;20739487;28;20050;-52
2021/08/07 15:15:32;;;;;;;6.03;3.50;;;21.10;99.90;;;;;;20739869;28;20080;-58
2021/08/07 15:25:34;;;;;;;5.28;3.70;;;21.00;99.90;;;;;;20739074;28;20030;-57
2021/08/07 15:35:36;;;;;;;4.35;3.63;;;20.50;99.90;;;;;;20739631;28;20029;-53
2021/08/07 15:45:38;;;;;;;6.07;4.22;;;20.10;99.90;;;;;;20738268;28;20034;-54
2021/08/07 15:55:41;;;;;;;8.75;4.20;;;20.00;99.90;;;;;;20738515;28;20424;-52
2021/08/07 16:05:43;;;;;;;6.82;4.13;;;19.90;99.90;;;;;;20668482;28;20047;-51
2021/08/07 16:15:45;;;;;;;5.70;3.88;;;19.80;99.90;;;;;;20672076;28;20034;-57
2021/08/07 16:25:47;;;;;;;7.72;3.72;;;19.90;99.90;;;;;;20671681;28;20030;-53
2021/08/07 16:35:49;;;;;;;5.43;3.90;;;19.80;99.90;;;;;;20670739;28;20042;-56
2021/08/07 16:45:51;;;;;;;4.80;3.92;;;19.70;99.90;;;;;;20670358;28;20097;-53
2021/08/07 16:55:54;;;;;;;5.40;3.30;;;19.90;99.90;;;;;;20669501;28;20087;-51
2021/08/07 17:05:56;;;;;;;4.40;3.13;;;19.90;99.90;;;;;;20710372;28;20104;-51
2021/08/07 17:15:58;;;;;;;7.15;3.03;;;19.60;99.90;;;;;;20710105;28;20033;-55
2021/08/07 17:26:00;;;;;;;3.67;2.50;;;19.20;99.90;;;;;;20705493;28;20089;-52
2021/08/07 17:36:02;;;;;;;5.57;2.53;;;19.00;99.90;;;;;;20704619;28;20034;-55
2021/08/07 17:46:04;;;;;;;6.22;2.80;;;18.90;99.90;;;;;;20698251;28;20372;-56
2021/08/07 17:56:06;;;;;;;4.72;2.95;;;18.80;99.90;;;;;;20705745;28;20473;-52
2021/08/07 18:06:08;;;;;;;10.73;3.08;;;18.60;99.90;;;;;;20670839;28;20046;-52
2021/08/07 18:16:11;;;;;;;5.03;2.70;;;18.50;99.90;;;;;;20663794;28;20038;-51
2021/08/07 18:26:14;;;;;;;7.78;3.28;;;18.40;99.90;;;;;;20662523;28;20038;-49
2021/08/07 18:36:18;;;;;;;5.90;3.60;;;18.30;99.90;;;;;;20662105;28;20039;-53
2021/08/07 18:46:20;;;;;;;5.20;3.75;;;18.20;99.90;;;;;;20661337;28;20096;-55
2021/08/07 18:56:22;;;;;;;4.90;3.47;;;18.20;99.90;;;;;;20659452;28;20478;-53
2021/08/07 19:06:25;;;;;;;4.88;3.72;;;18.10;99.90;;;;;;20729341;28;20093;-49
2021/08/07 19:16:28;;;;;;;6.13;3.42;;;18.00;99.90;;;;;;20739075;28;20045;-54
2021/08/07 19:26:31;;;;;;;6.20;3.30;;;17.90;99.90;;;;;;20740328;28;20080;-52
2021/08/07 19:36:39;;;;;;;6.50;3.42;;;17.80;99.90;;;;;;20747552;28;20037;-53
2021/08/07 19:46:45;;;;;;;5.55;3.30;;;17.80;99.90;;;;;;20755941;28;20088;-53
2021/08/07 19:56:48;;;;;;;8.45;3.08;;;17.60;99.90;;;;;;20754892;28;20482;-54
2021/08/07 20:06:50;;;;;;;4.90;2.47;;;17.20;99.90;;;;;;20753704;28;20050;-50
2021/08/07 20:16:52;;;;;;;4.57;3.28;;;16.90;99.90;;;;;;20753401;28;20054;-52
2021/08/07 20:26:54;;;;;;;5.95;2.75;;;16.70;99.90;;;;;;20752797;28;20510;-53
2021/08/07 20:36:57;;;;;;;6.22;3.00;;;16.60;99.90;;;;;;20751637;28;20036;-57
2021/08/07 20:46:59;;;;;;;8.38;3.00;;;16.40;99.90;;;;;;20749513;28;20053;-53
2021/08/07 20:57:01;;;;;;;8.23;3.00;;;16.20;99.90;;;;;;20749814;28;20033;-55
2021/08/07 21:07:07;;;;;;;5.93;3.00;;;16.00;99.90;;;;;;20748931;28;20050;-52
2021/08/07 21:17:10;;;;;;;6.13;3.25;;;15.90;99.90;;;;;;20748443;28;20061;-54
2021/08/07 21:27:13;;;;;;;7.57;3.65;;;15.60;99.90;;;;;;20747301;28;20128;-53
2021/08/07 21:37:14;;;;;;;7.05;3.30;;;15.60;99.90;;;;;;20746825;28;20092;-54
2021/08/07 21:47:16;;;;;;;9.05;3.45;;;15.60;99.90;;;;;;20744897;28;20041;-54
2021/08/07 21:57:18;;;;;;;6.65;3.40;;;15.40;99.90;;;;;;20744324;28;20100;-57
2021/08/07 22:07:20;;;;;;;6.68;3.22;;;15.20;99.90;;;;;;20726461;28;20050;-52
2021/08/07 22:17:21;;;;;;;5.47;3.33;;;15.10;99.90;;;;;;20743745;28;20067;-53
2021/08/07 22:27:23;;;;;;;7.15;4.35;;;15.30;99.90;;;;;;20742771;28;20092;-50
2021/08/07 22:37:26;;;;;;;12.50;3.63;;;15.00;99.90;;;;;;20742146;28;20034;-50
2021/08/07 22:47:28;;;;;;;5.75;3.30;;;14.90;99.90;;;;;;20707072;28;20073;-57
2021/08/07 22:57:29;;;;;;;7.50;3.53;;;14.90;99.90;;;;;;20740844;28;20053;-50
2021/08/07 23:07:31;;;;;;;7.50;3.35;;;15.00;99.90;;;;;;20739210;28;20050;-51
2021/08/07 23:17:33;;;;;;;6.65;3.55;;;15.10;99.90;;;;;;20740332;28;20030;-55
2021/08/07 23:27:34;;;;;;;10.43;3.47;;;15.00;99.90;;;;;;20739021;28;20034;-50
2021/08/07 23:37:36;;;;;;;9.10;4.53;;;14.90;99.90;;;;;;20739148;28;20034;-52
2021/08/07 23:47:38;;;;;;;8.70;4.07;;;14.90;99.90;;;;;;20738436;28;20038;-56
2021/08/07 23:57:40;;;;;;;10.35;4.50;;;14.80;99.90;;;;;;20737925;28;20034;-54
